createdAt,value
2022-09-22T00:01:59.199Z,99.90
2022-09-22T00:04:31.914Z,99.90
2022-09-22T00:07:04.930Z,99.90
2022-09-22T00:09:37.620Z,99.90
2022-09-22T00:12:10.896Z,99.90
2022-09-22T00:14:43.599Z,99.90
2022-09-22T00:17:16.515Z,99.90
2022-09-22T00:19:49.171Z,99.90
2022-09-22T00:22:22.020Z,99.90
2022-09-22T00:24:54.754Z,99.90
2022-09-22T00:27:28.361Z,99.90
2022-09-22T00:30:01.112Z,99.90
2022-09-22T00:32:34.072Z,99.90
2022-09-22T00:35:08.091Z,99.90
2022-09-22T00:37:40.895Z,99.90
2022-09-22T00:40:13.795Z,99.90
2022-09-22T00:42:46.491Z,99.90
2022-09-22T00:45:19.337Z,99.90
2022-09-22T00:47:52.575Z,99.90
2022-09-22T00:50:25.560Z,99.90
2022-09-22T00:53:03.392Z,99.90
2022-09-22T00:56:00.173Z,99.90
2022-09-22T00:58:37.090Z,99.90
2022-09-22T01:01:09.821Z,99.90
2022-09-22T01:03:43.960Z,99.90
2022-09-22T01:06:21.840Z,99.90
2022-09-22T01:08:56.415Z,99.90
2022-09-22T01:11:29.998Z,99.90
2022-09-22T01:14:22.868Z,99.90
2022-09-22T01:17:24.996Z,99.90
2022-09-22T01:20:27.509Z,99.90
2022-09-22T01:23:28.196Z,99.90
2022-09-22T01:26:30.032Z,99.90
2022-09-22T01:29:11.666Z,99.90
2022-09-22T01:32:05.865Z,99.90
2022-09-22T01:35:02.377Z,99.90
2022-09-22T01:37:46.247Z,99.90
2022-09-22T01:40:30.185Z,99.90
2022-09-22T01:43:15.462Z,99.90
2022-09-22T01:45:48.928Z,99.90
2022-09-22T01:48:29.289Z,99.90
2022-09-22T01:51:25.329Z,99.90
2022-09-22T01:54:05.179Z,99.90
2022-09-22T01:56:40.999Z,99.90
2022-09-22T01:59:16.546Z,99.90
2022-09-22T02:01:53.981Z,99.90
2022-09-22T02:04:35.570Z,99.90
2022-09-22T02:07:11.970Z,99.90
2022-09-22T02:09:47.343Z,99.90
2022-09-22T02:12:20.148Z,99.90
2022-09-22T02:14:53.312Z,99.90
2022-09-22T02:17:26.417Z,99.90
2022-09-22T02:19:59.706Z,99.90
2022-09-22T02:22:32.552Z,99.90
2022-09-22T02:25:06.306Z,99.90
2022-09-22T02:27:40.652Z,99.90
2022-09-22T02:30:14.604Z,99.90
2022-09-22T02:32:50.071Z,99.90
2022-09-22T02:35:26.221Z,99.90
2022-09-22T02:38:14.372Z,99.90
2022-09-22T02:40:59.102Z,99.90
2022-09-22T02:43:59.001Z,99.90
2022-09-22T02:46:43.522Z,99.90
2022-09-22T02:49:18.135Z,99.90
2022-09-22T02:51:52.721Z,99.90
2022-09-22T02:54:25.551Z,99.90
2022-09-22T02:56:58.231Z,99.90
2022-09-22T02:59:30.973Z,99.90
2022-09-22T03:02:03.956Z,99.90
2022-09-22T03:04:36.755Z,99.90
2022-09-22T03:07:09.432Z,99.90
2022-09-22T03:09:42.483Z,99.90
2022-09-22T03:12:15.174Z,99.90
2022-09-22T03:14:49.768Z,99.90
2022-09-22T03:17:22.577Z,99.90
2022-09-22T03:19:55.427Z,99.90
2022-09-22T03:22:28.177Z,99.90
2022-09-22T03:25:00.900Z,99.90
2022-09-22T03:27:33.689Z,99.90
2022-09-22T03:30:08.167Z,99.90
2022-09-22T03:32:41.618Z,99.90
2022-09-22T03:35:14.441Z,99.90
2022-09-22T03:37:47.284Z,99.90
2022-09-22T03:40:21.240Z,99.90
2022-09-22T03:42:53.987Z,99.90
2022-09-22T03:45:28.003Z,99.90
2022-09-22T03:48:00.819Z,99.90
2022-09-22T03:50:33.643Z,99.90
2022-09-22T03:53:06.395Z,99.90
2022-09-22T03:55:39.100Z,99.90
2022-09-22T03:58:11.847Z,99.90
2022-09-22T04:00:44.868Z,99.90
2022-09-22T04:03:18.433Z,99.90
2022-09-22T04:05:51.571Z,99.90
2022-09-22T04:08:24.316Z,99.90
2022-09-22T04:11:00.918Z,99.90
2022-09-22T04:13:35.347Z,99.90
2022-09-22T04:16:08.073Z,99.90
2022-09-22T04:18:42.045Z,99.90
2022-09-22T04:21:14.921Z,99.90
2022-09-22T04:23:47.638Z,99.90
2022-09-22T04:26:20.347Z,99.90
2022-09-22T04:28:53.131Z,99.90
2022-09-22T04:31:25.911Z,99.90
2022-09-22T04:33:58.653Z,99.90
2022-09-22T04:36:31.412Z,99.90
2022-09-22T04:39:04.197Z,99.90
2022-09-22T04:41:36.977Z,99.90
2022-09-22T04:44:09.739Z,99.90
2022-09-22T04:49:18.897Z,99.90
2022-09-22T04:54:24.631Z,99.90
2022-09-22T04:56:57.393Z,99.90
2022-09-22T04:59:30.058Z,99.90
2022-09-22T05:02:03.091Z,99.90
2022-09-22T05:04:36.000Z,99.90
2022-09-22T05:07:08.820Z,99.90
2022-09-22T05:09:41.455Z,99.90
2022-09-22T05:12:14.173Z,99.90
2022-09-22T05:14:46.908Z,99.90
2022-09-22T05:17:19.779Z,99.90
2022-09-22T05:19:55.614Z,99.90
2022-09-22T05:22:28.552Z,99.90
2022-09-22T05:25:01.319Z,99.90
2022-09-22T05:27:34.005Z,99.90
2022-09-22T05:30:07.361Z,99.90
2022-09-22T05:32:46.258Z,99.90
2022-09-22T05:35:23.134Z,99.90
2022-09-22T05:37:56.027Z,99.90
2022-09-22T05:40:28.729Z,99.90
2022-09-22T05:43:01.569Z,99.90
2022-09-22T05:45:34.413Z,99.90
2022-09-22T05:48:07.183Z,99.90
2022-09-22T05:50:40.015Z,99.90
2022-09-22T05:53:13.751Z,99.90
2022-09-22T05:55:46.513Z,99.90
2022-09-22T05:58:19.248Z,99.90
2022-09-22T06:00:52.340Z,99.90
2022-09-22T06:03:25.398Z,99.90
2022-09-22T06:05:58.125Z,99.90
2022-09-22T06:08:31.279Z,99.90
2022-09-22T06:11:04.037Z,99.90
2022-09-22T06:13:36.679Z,99.90
2022-09-22T06:16:09.410Z,99.90
2022-09-22T06:18:44.777Z,99.90
2022-09-22T06:21:17.513Z,99.90
2022-09-22T06:23:51.550Z,99.90
2022-09-22T06:26:24.285Z,99.90
2022-09-22T06:28:57.163Z,99.90
2022-09-22T06:31:29.927Z,99.90
2022-09-22T06:34:06.905Z,99.90
2022-09-22T06:36:42.992Z,99.90
2022-09-22T06:39:15.738Z,99.90
2022-09-22T06:41:49.279Z,99.90
2022-09-22T06:44:22.325Z,99.90
2022-09-22T06:46:55.080Z,99.90
2022-09-22T06:49:27.739Z,99.90
2022-09-22T06:52:00.449Z,99.90
2022-09-22T06:54:33.208Z,99.90
2022-09-22T06:57:06.733Z,99.90
2022-09-22T06:59:40.705Z,99.90
2022-09-22T07:02:13.525Z,99.90
2022-09-22T07:04:48.111Z,99.90
2022-09-22T07:07:20.816Z,99.90
2022-09-22T07:09:54.010Z,99.90
2022-09-22T07:12:26.835Z,99.90
2022-09-22T07:14:59.779Z,99.90
2022-09-22T07:17:35.188Z,99.90
2022-09-22T07:20:08.407Z,99.90
2022-09-22T07:22:41.055Z,99.90
2022-09-22T07:25:14.008Z,99.90
2022-09-22T07:27:46.692Z,99.90
2022-09-22T07:30:22.298Z,99.90
2022-09-22T07:32:56.351Z,99.90
2022-09-22T07:35:29.143Z,99.90
2022-09-22T07:38:03.236Z,99.90
2022-09-22T07:40:36.173Z,99.90
2022-09-22T07:43:08.948Z,99.90
2022-09-22T07:45:41.714Z,99.90
2022-09-22T07:48:32.918Z,99.90
2022-09-22T07:51:16.308Z,99.90
2022-09-22T07:54:16.801Z,99.90
2022-09-22T07:56:55.205Z,99.90
2022-09-22T07:59:28.350Z,99.90
2022-09-22T08:02:04.469Z,99.90
2022-09-22T08:04:41.010Z,99.90
2022-09-22T08:07:15.271Z,99.90
2022-09-22T08:09:48.082Z,99.90
2022-09-22T08:12:21.853Z,99.90
2022-09-22T08:14:58.066Z,99.90
2022-09-22T08:17:30.935Z,99.90
2022-09-22T08:20:05.603Z,99.90
2022-09-22T08:22:43.283Z,99.90
2022-09-22T08:25:24.274Z,99.90
2022-09-22T08:28:13.083Z,99.90
2022-09-22T08:30:55.024Z,99.90
2022-09-22T08:33:34.069Z,99.90
2022-09-22T08:36:07.296Z,99.90
2022-09-22T08:38:40.123Z,99.90
2022-09-22T08:41:17.457Z,99.90
2022-09-22T08:43:55.190Z,99.90
2022-09-22T08:46:35.548Z,99.90
2022-09-22T08:49:32.992Z,99.90
2022-09-22T08:52:44.580Z,99.90
2022-09-22T08:55:21.791Z,99.90
2022-09-22T08:58:07.384Z,99.90
2022-09-22T09:00:45.305Z,99.90
2022-09-22T09:03:36.712Z,99.90
2022-09-22T09:06:24.103Z,99.90
2022-09-22T09:09:09.994Z,99.90
2022-09-22T09:12:01.934Z,99.90
2022-09-22T09:14:34.713Z,99.90
2022-09-22T09:17:30.632Z,99.90
2022-09-22T09:20:19.837Z,99.90
2022-09-22T09:22:57.141Z,99.90
2022-09-22T09:25:38.202Z,99.90
2022-09-22T09:28:18.625Z,99.90
2022-09-22T09:30:53.424Z,99.90
2022-09-22T09:33:36.807Z,99.90
2022-09-22T09:38:55.250Z,99.90
2022-09-22T09:41:32.619Z,99.90
2022-09-22T09:44:05.888Z,99.90
2022-09-22T09:46:56.192Z,99.90
2022-09-22T09:49:28.970Z,99.90
2022-09-22T09:52:03.732Z,99.90
2022-09-22T09:54:37.618Z,99.90
2022-09-22T09:57:16.330Z,99.90
2022-09-22T10:00:26.719Z,99.90
2022-09-22T10:03:17.403Z,99.90
2022-09-22T10:06:04.386Z,99.90
2022-09-22T10:08:46.029Z,99.90
2022-09-22T10:11:32.109Z,99.90
2022-09-22T10:14:08.007Z,99.90
2022-09-22T10:16:51.627Z,99.90
2022-09-22T10:19:31.907Z,99.90
2022-09-22T10:22:26.451Z,99.90
2022-09-22T10:25:01.973Z,99.90
2022-09-22T10:27:41.970Z,99.90
2022-09-22T10:30:25.741Z,99.90
2022-09-22T10:33:10.629Z,99.90
2022-09-22T10:36:10.988Z,99.90
2022-09-22T10:38:45.065Z,99.90
2022-09-22T10:41:27.129Z,99.90
2022-09-22T10:44:37.978Z,99.90
2022-09-22T10:47:35.229Z,99.90
2022-09-22T10:50:45.736Z,99.90
2022-09-22T10:53:58.379Z,99.90
2022-09-22T10:56:41.331Z,99.90
2022-09-22T10:59:32.946Z,99.90
2022-09-22T11:02:25.047Z,99.60
2022-09-22T11:05:44.675Z,97.70
2022-09-22T11:08:38.561Z,95.60
2022-09-22T11:11:53.490Z,95.40
2022-09-22T11:14:50.103Z,95.00
2022-09-22T11:17:53.515Z,94.30
2022-09-22T11:20:48.147Z,92.40
2022-09-22T11:23:33.371Z,91.60
2022-09-22T11:26:36.457Z,92.10
2022-09-22T11:29:35.097Z,90.00
2022-09-22T11:32:07.706Z,87.20
2022-09-22T11:35:11.608Z,87.30
2022-09-22T11:38:19.252Z,87.10
2022-09-22T11:41:22.115Z,85.40
2022-09-22T11:44:15.397Z,83.60
2022-09-22T11:47:17.954Z,82.70
2022-09-22T11:50:08.777Z,83.40
2022-09-22T11:53:13.025Z,83.40
2022-09-22T11:56:23.272Z,83.00
2022-09-22T11:58:59.752Z,83.40
2022-09-22T12:01:37.921Z,83.40
2022-09-22T12:04:44.198Z,83.50
2022-09-22T12:07:28.115Z,81.80
2022-09-22T12:10:05.918Z,81.00
2022-09-22T12:12:40.538Z,77.50
2022-09-22T12:15:30.522Z,77.60
2022-09-22T12:18:19.042Z,78.40
2022-09-22T12:21:01.269Z,78.50
2022-09-22T12:23:40.964Z,76.80
2022-09-22T12:26:24.405Z,76.90
2022-09-22T12:28:58.762Z,76.30
2022-09-22T12:31:41.790Z,74.50
2022-09-22T12:34:39.080Z,74.90
2022-09-22T12:37:17.157Z,73.50
2022-09-22T12:39:50.342Z,71.80
2022-09-22T12:42:43.698Z,73.40
2022-09-22T12:45:28.501Z,72.10
2022-09-22T12:48:10.664Z,71.60
2022-09-22T12:50:45.278Z,70.10
2022-09-22T12:53:27.805Z,69.60
2022-09-22T12:56:17.291Z,70.50
2022-09-22T12:58:50.289Z,71.90
2022-09-22T13:01:32.445Z,72.60
2022-09-22T13:04:12.637Z,74.80
2022-09-22T13:06:45.278Z,74.00
2022-09-22T13:09:21.425Z,75.70
2022-09-22T13:12:12.164Z,75.40
2022-09-22T13:15:06.373Z,75.10
2022-09-22T13:17:45.055Z,76.80
2022-09-22T13:20:24.004Z,77.30
2022-09-22T13:23:11.956Z,77.40
2022-09-22T13:25:44.691Z,76.70
2022-09-22T13:28:20.188Z,78.40
2022-09-22T13:31:09.399Z,76.90
2022-09-22T13:33:42.508Z,76.10
2022-09-22T13:36:23.650Z,78.00
2022-09-22T13:38:58.954Z,74.50
2022-09-22T13:41:40.904Z,73.80
2022-09-22T13:44:14.662Z,76.00
2022-09-22T13:46:50.536Z,77.30
2022-09-22T13:49:44.649Z,78.80
2022-09-22T13:52:32.161Z,75.70
2022-09-22T13:55:14.858Z,77.90
2022-09-22T13:57:48.195Z,77.30
2022-09-22T14:00:27.784Z,78.70
2022-09-22T14:03:02.657Z,76.90
2022-09-22T14:05:35.698Z,77.70
2022-09-22T14:08:20.161Z,75.40
2022-09-22T14:10:53.399Z,78.30
2022-09-22T14:13:38.874Z,78.10
2022-09-22T14:16:21.700Z,77.60
2022-09-22T14:19:04.364Z,77.00
2022-09-22T14:21:47.561Z,77.10
2022-09-22T14:24:20.663Z,77.10
2022-09-22T14:27:04.187Z,78.20
2022-09-22T14:29:40.814Z,79.40
2022-09-22T14:32:25.395Z,80.30
2022-09-22T14:35:01.100Z,78.00
2022-09-22T14:37:35.449Z,77.70
2022-09-22T14:40:16.906Z,77.90
2022-09-22T14:42:58.590Z,77.00
2022-09-22T14:45:32.672Z,77.10
2022-09-22T14:48:18.940Z,77.60
2022-09-22T14:51:17.353Z,78.90
2022-09-22T14:53:56.139Z,79.30
2022-09-22T14:56:33.639Z,79.90
2022-09-22T14:59:27.203Z,80.10
2022-09-22T15:02:18.635Z,80.30
2022-09-22T15:04:52.556Z,80.00
2022-09-22T15:07:30.807Z,79.10
2022-09-22T15:10:24.703Z,80.10
2022-09-22T15:13:36.640Z,79.50
2022-09-22T15:16:39.638Z,80.90
2022-09-22T15:19:13.123Z,81.00
2022-09-22T15:21:50.512Z,82.30
2022-09-22T15:24:26.729Z,82.40
2022-09-22T15:26:59.819Z,82.80
2022-09-22T15:29:33.640Z,82.80
2022-09-22T15:32:07.235Z,83.70
2022-09-22T15:34:42.645Z,84.60
2022-09-22T15:37:20.881Z,83.80
2022-09-22T15:39:53.681Z,84.10
2022-09-22T15:42:28.033Z,83.90
2022-09-22T15:45:00.688Z,84.00
2022-09-22T15:47:33.676Z,84.70
2022-09-22T15:50:14.490Z,85.70
2022-09-22T15:52:47.283Z,82.20
2022-09-22T15:55:22.494Z,82.90
2022-09-22T15:57:56.861Z,82.50
2022-09-22T16:00:29.711Z,82.10
2022-09-22T16:03:02.499Z,83.00
2022-09-22T16:05:36.882Z,84.70
2022-09-22T16:08:13.595Z,85.00
2022-09-22T16:10:47.511Z,85.40
2022-09-22T16:13:20.348Z,86.30
2022-09-22T16:15:54.073Z,87.00
2022-09-22T16:18:26.777Z,86.70
2022-09-22T16:21:06.963Z,87.50
2022-09-22T16:23:39.624Z,87.20
2022-09-22T16:26:12.547Z,87.70
2022-09-22T16:28:45.398Z,89.00
2022-09-22T16:31:19.913Z,88.90
2022-09-22T16:33:58.235Z,88.50
2022-09-22T16:36:33.518Z,88.90
2022-09-22T16:39:06.256Z,89.10
2022-09-22T16:41:44.939Z,88.90
2022-09-22T16:44:17.711Z,89.40
2022-09-22T16:46:50.476Z,90.00
2022-09-22T16:49:24.972Z,90.00
2022-09-22T16:51:57.688Z,90.20
2022-09-22T16:54:34.332Z,90.60
2022-09-22T16:57:07.154Z,90.40
2022-09-22T16:59:39.852Z,90.30
2022-09-22T17:02:12.616Z,90.00
2022-09-22T17:04:45.606Z,90.30
2022-09-22T17:07:18.353Z,90.30
2022-09-22T17:09:51.093Z,90.50
2022-09-22T17:12:25.463Z,90.60
2022-09-22T17:14:59.654Z,90.70
2022-09-22T17:17:32.296Z,91.10
2022-09-22T17:20:05.452Z,91.00
2022-09-22T17:22:38.315Z,91.50
2022-09-22T17:25:11.073Z,91.70
2022-09-22T17:27:43.859Z,91.60
2022-09-22T17:30:16.556Z,92.00
2022-09-22T17:32:49.267Z,92.30
2022-09-22T17:35:21.972Z,93.20
2022-09-22T17:37:54.807Z,94.20
2022-09-22T17:40:27.589Z,93.90
2022-09-22T17:43:05.581Z,94.60
2022-09-22T17:45:38.795Z,96.10
2022-09-22T17:48:29.887Z,96.70
2022-09-22T17:51:21.038Z,98.60
2022-09-22T17:54:12.252Z,99.20
2022-09-22T17:56:44.981Z,99.90
2022-09-22T17:59:17.774Z,99.90
2022-09-22T18:01:53.505Z,99.90
2022-09-22T18:04:27.098Z,99.90
2022-09-22T18:07:01.480Z,99.90
2022-09-22T18:09:40.747Z,99.90
2022-09-22T18:12:21.246Z,99.90
2022-09-22T18:14:55.512Z,99.90
2022-09-22T18:17:29.972Z,99.90
2022-09-22T18:20:02.855Z,99.90
2022-09-22T18:22:36.586Z,99.90
2022-09-22T18:25:10.328Z,99.90
2022-09-22T18:27:44.056Z,99.90
2022-09-22T18:30:19.083Z,99.90
2022-09-22T18:32:52.200Z,99.90
2022-09-22T18:35:27.879Z,99.90
2022-09-22T18:38:00.815Z,99.90
2022-09-22T18:40:33.663Z,99.90
2022-09-22T18:43:10.437Z,99.90
2022-09-22T18:45:43.314Z,99.90
2022-09-22T18:48:17.310Z,99.90
2022-09-22T18:50:50.041Z,99.90
2022-09-22T18:53:23.013Z,99.90
2022-09-22T18:55:55.681Z,99.90
2022-09-22T18:58:28.384Z,99.90
2022-09-22T19:01:01.136Z,99.90
2022-09-22T19:03:34.624Z,99.90
2022-09-22T19:06:07.831Z,99.90
2022-09-22T19:08:40.768Z,99.90
2022-09-22T19:11:17.055Z,99.90
2022-09-22T19:13:52.552Z,99.90
2022-09-22T19:16:25.608Z,99.90
2022-09-22T19:18:58.457Z,99.90
2022-09-22T19:21:31.617Z,99.90
2022-09-22T19:24:06.277Z,99.90
2022-09-22T19:26:42.191Z,99.90
2022-09-22T19:29:15.140Z,99.90
2022-09-22T19:31:48.061Z,99.90
2022-09-22T19:34:21.078Z,99.90
2022-09-22T19:36:55.437Z,99.90
2022-09-22T19:39:28.320Z,99.90
2022-09-22T19:42:01.082Z,99.90
2022-09-22T19:44:33.884Z,99.90
2022-09-22T19:47:06.658Z,99.90
2022-09-22T19:49:42.235Z,99.90
2022-09-22T19:52:15.035Z,99.90
2022-09-22T19:54:47.719Z,99.90
2022-09-22T19:57:20.441Z,99.90
2022-09-22T19:59:53.381Z,99.90
2022-09-22T20:02:26.161Z,99.90
2022-09-22T20:04:59.008Z,99.90
2022-09-22T20:07:32.309Z,99.90
2022-09-22T20:10:07.237Z,99.90
2022-09-22T20:12:40.275Z,99.90
2022-09-22T20:15:15.146Z,99.90
2022-09-22T20:17:47.903Z,99.90
2022-09-22T20:20:23.464Z,99.90
2022-09-22T20:23:01.884Z,99.90
2022-09-22T20:25:34.899Z,99.90
2022-09-22T20:28:07.820Z,99.90
2022-09-22T20:30:42.662Z,99.90
2022-09-22T20:33:25.063Z,99.90
2022-09-22T20:35:57.854Z,99.90
2022-09-22T20:38:31.353Z,99.90
2022-09-22T20:41:04.168Z,99.90
2022-09-22T20:43:36.922Z,99.90
2022-09-22T20:46:09.810Z,99.90
2022-09-22T20:48:42.780Z,99.90
2022-09-22T20:51:15.619Z,99.90
2022-09-22T20:53:48.529Z,99.90
2022-09-22T20:56:21.313Z,99.90
2022-09-22T20:58:54.147Z,99.90
2022-09-22T21:01:27.016Z,99.90
2022-09-22T21:04:01.224Z,99.90
2022-09-22T21:06:34.110Z,99.90
2022-09-22T21:09:27.918Z,99.90
2022-09-22T21:12:01.092Z,99.90
2022-09-22T21:14:34.380Z,99.90
2022-09-22T21:17:07.605Z,99.90
2022-09-22T21:19:40.438Z,99.90
2022-09-22T21:22:13.940Z,99.90
2022-09-22T21:24:48.650Z,99.90
2022-09-22T21:27:21.356Z,99.90
2022-09-22T21:29:54.108Z,99.90
2022-09-22T21:32:26.884Z,99.90
2022-09-22T21:34:59.764Z,99.90
2022-09-22T21:37:32.649Z,99.90
2022-09-22T21:40:05.952Z,99.90
2022-09-22T21:42:38.758Z,99.90
2022-09-22T21:45:12.820Z,99.90
2022-09-22T21:47:50.686Z,99.90
2022-09-22T21:50:23.662Z,99.90
2022-09-22T21:52:56.480Z,99.90
2022-09-22T21:55:30.359Z,99.90
2022-09-22T21:58:03.076Z,99.90
2022-09-22T22:00:51.541Z,99.90
2022-09-22T22:03:31.424Z,99.90
2022-09-22T22:06:13.518Z,99.90
2022-09-22T22:08:49.144Z,99.90
2022-09-22T22:11:23.917Z,99.90
2022-09-22T22:13:58.111Z,99.90
2022-09-22T22:16:39.922Z,99.90
2022-09-22T22:19:18.119Z,99.90
2022-09-22T22:21:51.727Z,99.90
2022-09-22T22:24:28.514Z,99.90
2022-09-22T22:27:09.936Z,99.90
2022-09-22T22:29:42.743Z,99.90
2022-09-22T22:32:15.509Z,99.90
2022-09-22T22:34:48.540Z,99.90
2022-09-22T22:37:21.388Z,99.90
2022-09-22T22:39:54.224Z,99.90
2022-09-22T22:42:26.908Z,99.90
2022-09-22T22:44:59.694Z,99.90
2022-09-22T22:47:33.639Z,99.90
2022-09-22T22:50:07.239Z,99.90
2022-09-22T22:52:42.142Z,99.90
2022-09-22T22:55:14.896Z,99.90
2022-09-22T22:57:47.765Z,99.90
2022-09-22T23:00:20.889Z,99.90
2022-09-22T23:02:53.750Z,99.90
2022-09-22T23:05:27.941Z,99.90
2022-09-22T23:08:01.199Z,99.90
2022-09-22T23:10:34.589Z,99.90
2022-09-22T23:13:07.376Z,99.90
2022-09-22T23:15:40.090Z,99.90
2022-09-22T23:18:15.459Z,99.90
2022-09-22T23:20:54.519Z,99.90
2022-09-22T23:23:27.529Z,99.90
2022-09-22T23:26:01.935Z,99.90
2022-09-22T23:28:36.709Z,99.90
2022-09-22T23:31:14.699Z,99.90
2022-09-22T23:33:49.922Z,99.90
2022-09-22T23:36:25.432Z,99.90
2022-09-22T23:39:03.741Z,99.90
2022-09-22T23:41:37.242Z,99.90
2022-09-22T23:44:11.766Z,99.90
2022-09-22T23:46:44.559Z,99.90
2022-09-22T23:49:17.584Z,99.90
2022-09-22T23:51:50.382Z,99.90
2022-09-22T23:54:23.087Z,99.90
2022-09-22T23:56:55.747Z,99.90
2022-09-22T23:59:28.457Z,99.90
